Flight Track Log - Related Links

Times and Time Zones

All times are in EST time to prevent confusion due to time zone crossing. See the DAL1951 flight status page for this flight to view local times or setup timezone preferences in your user account.

Time Position Orientation Groundspeed Altitude Reporting Facility
EST Latitude Longitude Course Direction KTS MPH feet Rate Location/Type
Wed 02:10:25 PM 33.6333 -84.4667 168° South 168 193 2,600  Level Atlanta TRACON
Wed 02:11:31 PM 33.6333 -84.5500 270° West 253 291 5,400 2,850 Climbing Atlanta TRACON
Wed 02:12:25 PM 33.6333 -84.6167 270° West 238 274 8,300 2,158 Climbing Atlanta TRACON
Wed 02:13:00 PM 33.2772 -84.2401 168° South  Level FlightAware Approximate
Wed 02:13:25 PM 33.6000 -84.6833 239° Southwest 272 313 9,500  Level Atlanta TRACON
Wed 02:14:00 PM 33.1649 -84.2120 168° South  Level FlightAware Approximate
Wed 02:14:39 PM 33.4922 -84.6517 166° South 373 429 10,000  Level Atlanta Center
Wed 02:15:00 PM 33.0525 -84.1840 168° South  Level FlightAware Approximate
Wed 02:15:39 PM 33.4092 -84.5689 140° Southeast 394 453 10,600  Level Atlanta Center
Wed 02:16:39 PM 33.3197 -84.4864 142° Southeast 402 463 13,300 2,200 Climbing Atlanta Center
Wed 02:17:39 PM 33.2281 -84.3989 141° Southeast 421 484 15,000 1,200 Climbing Atlanta Center
Wed 02:18:39 PM 33.1447 -84.3167 140° Southeast 427 491 15,700 500 Climbing Atlanta Center
Wed 02:19:39 PM 33.0489 -84.2272 142° Southeast 438 504 16,000 150 Climbing Atlanta Center
Wed 02:20:39 PM 32.9322 -84.1453 149° Southeast 446 513 16,000 750 Level Atlanta Center
Wed 02:21:39 PM 32.8194 -84.0981 161° South 425 489 17,500 2,100 Climbing Atlanta Center
Wed 02:22:39 PM 32.7047 -84.0561 163° South 431 496 20,200 2,300 Climbing Atlanta Center
Wed 02:23:39 PM 32.5919 -84.0067 160° South 431 496 22,100 1,835 Climbing Atlanta Center
Wed 02:24:40 PM 32.4750 -83.9600 161° South 437 503 23,900 1,600 Climbing Atlanta Center
Wed 02:25:39 PM 32.3539 -83.9111 161° South 449 517 25,300 1,462 Climbing Atlanta Center
Wed 02:26:39 PM 32.2286 -83.8597 161° South 456 525 26,800 718 Climbing Atlanta Center
Wed 02:28:01 PM 32.0694 -83.7922 160° South 477 549 27,000 84 Climbing Jacksonville Center
Wed 02:29:02 PM 31.9403 -83.7397 161° South 483 556 27,000  Level Jacksonville Center
Wed 02:30:03 PM 31.7944 -83.6822 161° South 493 567 27,000  Level Jacksonville Center
Wed 02:31:03 PM 31.6675 -83.6297 161° South 499 574 27,000  Level Jacksonville Center
Wed 02:32:01 PM 31.5319 -83.5775 162° South 504 580 27,000  Level Jacksonville Center
Wed 02:33:02 PM 31.4028 -83.5256 161° South 499 574 27,000  Level Jacksonville Center
Wed 02:34:03 PM 31.2694 -83.4736 162° South 504 580 27,000 893 Level Jacksonville Center
Wed 02:35:03 PM 31.1403 -83.4217 161° South 504 580 28,800 1,017 Climbing Jacksonville Center
Wed 02:36:01 PM 31.0111 -83.3725 162° South 498 573 29,000 102 Climbing Jacksonville Center
Wed 02:37:01 PM 30.8817 -83.3211 161° South 499 574 29,000  Level Jacksonville Center
Wed 02:38:02 PM 30.7544 -83.2650 159° South 499 574 29,000  Level Jacksonville Center
Wed 02:39:02 PM 30.6231 -83.1992 157° South 504 580 29,000  Level Jacksonville Center
Wed 02:40:03 PM 30.4897 -83.1311 156° South 510 587 29,000  Level Jacksonville Center
Wed 02:41:03 PM 30.3583 -83.0683 158° South 516 594 29,000  Level Jacksonville Center
Wed 02:42:02 PM 30.2267 -83.0008 156° South 516 594 29,000  Level Jacksonville Center
Wed 02:43:02 PM 30.1225 -82.9478 156° South 516 594 29,000  Level Jacksonville Center
Wed 02:44:03 PM 29.9639 -82.8733 158° South 511 588 29,000  Level Jacksonville Center
Wed 02:45:03 PM 29.8344 -82.8089 157° South 511 588 29,000  Level Jacksonville Center
Wed 02:46:01 PM 29.7028 -82.7467 158° South 511 588 29,000  Level Jacksonville Center
Wed 02:47:02 PM 29.5753 -82.6847 157° South 511 588 29,000  Level Jacksonville Center
Wed 02:48:02 PM 29.4603 -82.6231 155° Southeast 505 581 29,000  Level Jacksonville Center
Wed 02:49:03 PM 29.3308 -82.5592 157° South 505 581 29,000  Level Jacksonville Center
Wed 02:50:03 PM 29.2011 -82.4978 158° South 505 581 29,000  Level Jacksonville Center
Wed 02:51:01 PM 29.0653 -82.4578 166° South 505 581 29,000  Level Jacksonville Center
Wed 02:52:02 PM 28.9381 -82.4869 191° South 474 545 29,000  Level Jacksonville Center
Wed 02:53:02 PM 28.8150 -82.5183 193° South 464 534 29,000  Level Jacksonville Center
Wed 02:54:03 PM 28.6919 -82.5517 193° South 464 534 29,000  Level Jacksonville Center
Wed 02:55:03 PM 28.5669 -82.5878 194° South 464 534 29,000  Level Jacksonville Center
Wed 02:56:01 PM 28.4417 -82.6211 193° South 464 534 29,000  Level Jacksonville Center
Wed 02:57:01 PM 28.3125 -82.6519 192° South 464 534 29,000  Level Jacksonville Center
Wed 02:58:02 PM 28.1872 -82.6831 192° South 471 542 29,000  Level Jacksonville Center
Wed 03:00:30 PM 27.8417 -82.7056 183° South 486 559 29,000  Level Miami Center
Wed 03:01:30 PM 27.7225 -82.6572 160° South 493 567 29,000  Level Miami Center
Wed 03:02:30 PM 27.5747 -82.6006 161° South 510 587 29,000  Level Miami Center
Wed 03:03:30 PM 27.4431 -82.5494 161° South 510 587 29,000  Level Miami Center
Wed 03:04:30 PM 27.3092 -82.5033 163° South 510 587 29,000  Level Miami Center
Wed 03:05:30 PM 27.1797 -82.4550 162° South 505 581 29,000  Level Miami Center
Wed 03:06:30 PM 27.0481 -82.4042 161° South 511 588 29,000  Level Miami Center
Wed 03:07:30 PM 26.9267 -82.3611 162° South 506 582 29,000  Level Miami Center
Wed 03:08:30 PM 26.7947 -82.3131 162° South 506 582 29,000  Level Miami Center
Wed 03:09:30 PM 26.6650 -82.2675 163° South 501 577 29,000  Level Miami Center
Wed 03:10:30 PM 26.5406 -82.1900 151° Southeast 496 571 29,000 -250 Level Miami Center
Wed 03:11:30 PM 26.4319 -82.0783 137° Southeast 513 590 28,500 -850 Descending Miami Center
Wed 03:12:30 PM 26.3253 -81.9625 136° Southeast 519 597 27,300 -1,250 Descending Miami Center
Wed 03:13:30 PM 26.2278 -81.8242 128° Southeast 526 605 26,000 -1,350 Descending Miami Center
Wed 03:14:30 PM 26.1661 -81.6733 114° Southeast 531 611 24,600 -1,250 Descending Miami Center
Wed 03:15:30 PM 26.1083 -81.5231 113° Southeast 531 611 23,500 -1,300 Descending Miami Center
Wed 03:16:30 PM 26.0503 -81.3775 114° Southeast 524 603 22,000 -2,050 Descending Miami Center
Wed 03:17:30 PM 25.9961 -81.2344 113° Southeast 513 590 19,400 -2,600 Descending Miami Center
Wed 03:18:30 PM 25.9417 -81.0964 114° Southeast 494 568 16,800 -2,021 Descending Miami Center
Wed 03:19:05 PM 25.9103 -81.0281 117° Southeast 456 525 16,200 -800 Descending Miami Center
Wed 03:19:30 PM 25.8908 -80.9744 112° Southeast 456 525 16,000 -295 Descending Miami Center
Wed 03:20:06 PM 25.8675 -80.9136 113° Southeast 392 451 15,900 -1,000 Descending Miami Center
Wed 03:20:30 PM 25.8564 -80.8603 103° East 407 468 15,000 -1,869 Descending Miami Center
Wed 03:21:07 PM 25.8522 -80.7861 94° East 387 445 14,000 -1,600 Descending Miami Center
Wed 03:21:30 PM 25.8556 -80.7425 85° East 378 435 13,400 -1,742 Descending Miami Center
Wed 03:22:09 PM 25.8572 -80.6708 89° East 373 429 12,200 -1,900 Descending Miami Center
Wed 03:22:30 PM 25.8606 -80.6294 85° East 363 418 11,500 -1,377 Descending Miami Center
Wed 03:23:10 PM 25.8369 -80.5642 112° Southeast 342 394 10,800 -800 Descending Miami Center
Wed 03:23:30 PM 25.8233 -80.5336 116° Southeast 338 389 10,700 -885 Descending Miami Center
Wed 03:24:11 PM 25.7931 -80.4819 123° Southeast 314 361 9,900 -1,200 Descending Miami Center
Wed 03:24:30 PM 25.7772 -80.4514 120° Southeast 321 369 9,500 -1,180 Descending Miami Center
Wed 03:25:12 PM 25.7453 -80.3928 121° Southeast 298 343 8,700 -900 Descending Miami Center
Wed 03:25:30 PM 25.7353 -80.3719 118° Southeast 311 358 8,600 -393 Descending Miami Center
Wed 03:26:13 PM 25.7092 -80.3250 122° Southeast 245 282 8,300 -700 Descending Miami Center
Wed 03:26:30 PM 25.6992 -80.3039 118° Southeast 273 314 7,900 -1,377 Descending Miami Center
Wed 03:27:14 PM 25.6775 -80.2550 116° Southeast 237 273 6,900 -1,400 Descending Miami Center
Wed 03:27:30 PM 25.6694 -80.2364 116° Southeast 251 289 6,500 -1,574 Descending Miami Center
Wed 03:28:15 PM 25.6456 -80.1850 117° Southeast 251 289 5,300 -1,358 Descending Miami Center
Wed 03:29:16 PM 25.6075 -80.1169 122° Southeast 245 282 4,100 -1,031 Descending Miami Center
Wed 03:30:23 PM 25.5797 -80.0425 112° Southeast 254 292 3,100 -516 Descending Miami Center
Wed 03:31:24 PM 25.6264 -80.0117 31° Northeast 207 238 3,000 -52 Descending Miami Center
Wed 03:32:19 PM 25.6633 -80.0447 321° Northwest 186 214 3,000  Level Miami Center
Wed 03:33:21 PM 25.6914 -80.1008 299° West 190 219 3,000 -94 Level Miami Center
Wed 03:34:27 PM 25.7175 -80.1478 302° West 164 189 2,800 -516 Descending Miami Center
Wed 03:35:29 PM 25.7394 -80.1922 299° West 156 180 1,900 -837 Descending Miami Center
Wed 03:36:36 PM 25.7614 -80.2367 299° West 138 159 1,000 -797 Descending Miami Center
Wed 03:37:37 PM 25.7794 -80.2764 297° West 139 160 200 -787 Descending Miami Center

Login

Don't have an account? Register now (free) for customized features, flight alerts, and more!